sensor_id;sensor_type;location;lat;lon;timestamp;pressure;altitude;pressure_sealevel;temperature;humidity
69257;BME280;56376;53.356;-1.748;2022-09-20T00:00:47;100463.94;;;11.87;98.30
69257;BME280;56376;53.356;-1.748;2022-09-20T00:03:14;100464.84;;;11.84;98.23
69257;BME280;56376;53.356;-1.748;2022-09-20T00:05:42;100460.47;;;11.85;98.30
69257;BME280;56376;53.356;-1.748;2022-09-20T00:08:12;100471.88;;;11.82;98.59
69257;BME280;56376;53.356;-1.748;2022-09-20T00:10:38;100474.50;;;11.81;98.38
69257;BME280;56376;53.356;-1.748;2022-09-20T00:13:06;100474.50;;;11.81;98.63
69257;BME280;56376;53.356;-1.748;2022-09-20T00:15:33;100470.19;;;11.80;98.45
69257;BME280;56376;53.356;-1.748;2022-09-20T00:17:59;100455.44;;;11.77;98.96
69257;BME280;56376;53.356;-1.748;2022-09-20T00:20:25;100468.53;;;11.76;98.73
69257;BME280;56376;53.356;-1.748;2022-09-20T00:22:51;100468.53;;;11.76;98.80
69257;BME280;56376;53.356;-1.748;2022-09-20T00:25:18;100459.84;;;11.75;99.04
69257;BME280;56376;53.356;-1.748;2022-09-20T00:27:44;100469.50;;;11.72;98.92
69257;BME280;56376;53.356;-1.748;2022-09-20T00:30:11;100460.78;;;11.73;98.98
69257;BME280;56376;53.356;-1.748;2022-09-20T00:32:37;100466.94;;;11.70;99.33
69257;BME280;56376;53.356;-1.748;2022-09-20T00:35:02;100464.34;;;11.68;99.49
69257;BME280;56376;53.356;-1.748;2022-09-20T00:37:38;100458.31;;;11.66;99.53
69257;BME280;56376;53.356;-1.748;2022-09-20T00:40:10;100456.59;;;11.65;99.34
69257;BME280;56376;53.356;-1.748;2022-09-20T00:42:37;100462.69;;;11.66;99.64
69257;BME280;56376;53.356;-1.748;2022-09-20T00:45:27;100457.50;;;11.64;99.87
69257;BME280;56376;53.356;-1.748;2022-09-20T00:53:05;100472.41;;;11.61;100.00
69257;BME280;56376;53.356;-1.748;2022-09-20T00:55:33;100470.72;;;11.60;100.00
69257;BME280;56376;53.356;-1.748;2022-09-20T00:58:00;100470.72;;;11.60;100.00
69257;BME280;56376;53.356;-1.748;2022-09-20T01:00:26;100470.72;;;11.58;100.00
69257;BME280;56376;53.356;-1.748;2022-09-20T01:02:56;100482.94;;;11.59;100.00
69257;BME280;56376;53.356;-1.748;2022-09-20T01:05:23;100486.41;;;11.60;100.00
69257;BME280;56376;53.356;-1.748;2022-09-20T01:07:50;100482.06;;;11.59;100.00
69257;BME280;56376;53.356;-1.748;2022-09-20T01:10:16;100486.44;;;11.58;100.00
69257;BME280;56376;53.356;-1.748;2022-09-20T01:12:43;100476.88;;;11.57;100.00
69257;BME280;56376;53.356;-1.748;2022-09-20T01:15:11;100486.50;;;11.57;100.00
69257;BME280;56376;53.356;-1.748;2022-09-20T01:17:40;100484.72;;;11.57;100.00
69257;BME280;56376;53.356;-1.748;2022-09-20T01:20:15;100486.50;;;11.57;100.00
69257;BME280;56376;53.356;-1.748;2022-09-20T01:28:18;100485.69;;;11.53;100.00
69257;BME280;56376;53.356;-1.748;2022-09-20T01:33:57;100483.16;;;11.50;100.00
69257;BME280;56376;53.356;-1.748;2022-09-20T01:36:53;100484.06;;;11.49;100.00
69257;BME280;56376;53.356;-1.748;2022-09-20T01:42:02;100483.25;;;11.45;100.00
69257;BME280;56376;53.356;-1.748;2022-09-20T01:50:11;100472.81;;;11.44;100.00
69257;BME280;56376;53.356;-1.748;2022-09-20T01:58:49;100477.25;;;11.42;100.00
69257;BME280;56376;53.356;-1.748;2022-09-20T02:05:03;100459.88;;;11.39;100.00
69257;BME280;56376;53.356;-1.748;2022-09-20T02:10:34;100466.06;;;11.37;100.00
69257;BME280;56376;53.356;-1.748;2022-09-20T02:13:08;100463.47;;;11.35;100.00
69257;BME280;56376;53.356;-1.748;2022-09-20T02:16:07;100459.13;;;11.34;100.00
69257;BME280;56376;53.356;-1.748;2022-09-20T02:21:40;100460.88;;;11.34;100.00
69257;BME280;56376;53.356;-1.748;2022-09-20T02:24:26;100459.16;;;11.33;100.00
69257;BME280;56376;53.356;-1.748;2022-09-20T02:35:40;100461.75;;;11.34;100.00
69257;BME280;56376;53.356;-1.748;2022-09-20T02:41:03;100460.88;;;11.34;100.00
69257;BME280;56376;53.356;-1.748;2022-09-20T02:46:34;100461.78;;;11.33;100.00
69257;BME280;56376;53.356;-1.748;2022-09-20T02:52:16;100450.56;;;11.29;100.00
69257;BME280;56376;53.356;-1.748;2022-09-20T02:57:43;100441.88;;;11.27;100.00
69257;BME280;56376;53.356;-1.748;2022-09-20T03:00:21;100450.56;;;11.27;100.00
69257;BME280;56376;53.356;-1.748;2022-09-20T03:06:06;100448.88;;;11.25;100.00
69257;BME280;56376;53.356;-1.748;2022-09-20T03:08:53;100449.75;;;11.25;100.00
69257;BME280;56376;53.356;-1.748;2022-09-20T03:14:37;100439.38;;;11.22;100.00
69257;BME280;56376;53.356;-1.748;2022-09-20T03:17:31;100440.31;;;11.20;100.00
69257;BME280;56376;53.356;-1.748;2022-09-20T03:23:13;100441.25;;;11.16;100.00
69257;BME280;56376;53.356;-1.748;2022-09-20T03:28:36;100446.59;;;11.11;100.00
69257;BME280;56376;53.356;-1.748;2022-09-20T03:31:18;100438.81;;;11.10;100.00
69257;BME280;56376;53.356;-1.748;2022-09-20T03:34:02;100446.69;;;11.08;100.00
69257;BME280;56376;53.356;-1.748;2022-09-20T03:42:29;100436.28;;;11.05;100.00
69257;BME280;56376;53.356;-1.748;2022-09-20T03:45:11;100440.69;;;11.03;100.00
69257;BME280;56376;53.356;-1.748;2022-09-20T03:53:40;100438.25;;;10.97;100.00
69257;BME280;56376;53.356;-1.748;2022-09-20T03:59:07;100428.00;;;10.88;100.00
69257;BME280;56376;53.356;-1.748;2022-09-20T04:04:46;100429.09;;;10.77;100.00
69257;BME280;56376;53.356;-1.748;2022-09-20T04:15:34;100421.78;;;10.54;98.85
69257;BME280;56376;53.356;-1.748;2022-09-20T04:18:27;100418.44;;;10.48;98.09
69257;BME280;56376;53.356;-1.748;2022-09-20T04:23:51;100422.97;;;10.39;97.42
69257;BME280;56376;53.356;-1.748;2022-09-20T04:26:25;100418.69;;;10.35;97.45
69257;BME280;56376;53.356;-1.748;2022-09-20T04:31:40;100418.00;;;10.26;96.89
69257;BME280;56376;53.356;-1.748;2022-09-20T04:34:41;100418.09;;;10.21;96.57
69257;BME280;56376;53.356;-1.748;2022-09-20T04:37:30;100420.81;;;10.16;96.32
69257;BME280;56376;53.356;-1.748;2022-09-20T04:40:25;100426.97;;;10.12;96.22
69257;BME280;56376;53.356;-1.748;2022-09-20T04:48:49;100427.19;;;10.00;96.06
69257;BME280;56376;53.356;-1.748;2022-09-20T04:59:05;100426.44;;;9.95;95.88
69257;BME280;56376;53.356;-1.748;2022-09-20T05:13:39;100443.06;;;9.89;97.06
69257;BME280;56376;53.356;-1.748;2022-09-20T05:19:18;100443.22;;;9.82;97.31
69257;BME280;56376;53.356;-1.748;2022-09-20T05:28:00;100433.84;;;9.73;97.64
69257;BME280;56376;53.356;-1.748;2022-09-20T05:30:39;100442.56;;;9.70;97.79
69257;BME280;56376;53.356;-1.748;2022-09-20T05:33:17;100444.31;;;9.70;98.15
69257;BME280;56376;53.356;-1.748;2022-09-20T05:36:09;100440.00;;;9.67;97.22
69257;BME280;56376;53.356;-1.748;2022-09-20T05:39:00;100441.81;;;9.62;97.52
69257;BME280;56376;53.356;-1.748;2022-09-20T05:44:26;100447.94;;;9.61;97.78
69257;BME280;56376;53.356;-1.748;2022-09-20T05:52:53;100455.84;;;9.58;97.87
69257;BME280;56376;53.356;-1.748;2022-09-20T05:55:46;100458.44;;;9.57;98.09
69257;BME280;56376;53.356;-1.748;2022-09-20T05:58:27;100454.13;;;9.56;98.45
69257;BME280;56376;53.356;-1.748;2022-09-20T06:01:10;100456.69;;;9.57;98.64
69257;BME280;56376;53.356;-1.748;2022-09-20T06:04:23;100455.91;;;9.55;98.93
69257;BME280;56376;53.356;-1.748;2022-09-20T06:07:11;100472.34;;;9.59;99.33
69257;BME280;56376;53.356;-1.748;2022-09-20T06:21:03;100473.91;;;9.69;100.00
69257;BME280;56376;53.356;-1.748;2022-09-20T06:23:34;100474.75;;;9.71;100.00
69257;BME280;56376;53.356;-1.748;2022-09-20T06:26:03;100480.81;;;9.71;100.00
69257;BME280;56376;53.356;-1.748;2022-09-20T06:28:40;100470.34;;;9.73;100.00
69257;BME280;56376;53.356;-1.748;2022-09-20T06:31:08;100481.66;;;9.73;100.00
69257;BME280;56376;53.356;-1.748;2022-09-20T06:33:59;100474.69;;;9.72;100.00
69257;BME280;56376;53.356;-1.748;2022-09-20T06:36:29;100485.97;;;9.74;100.00
69257;BME280;56376;53.356;-1.748;2022-09-20T06:42:25;100485.94;;;9.76;100.00
69257;BME280;56376;53.356;-1.748;2022-09-20T06:44:51;100485.06;;;9.77;100.00
69257;BME280;56376;53.356;-1.748;2022-09-20T06:47:17;100486.72;;;9.81;100.00
69257;BME280;56376;53.356;-1.748;2022-09-20T06:49:43;100484.91;;;9.86;100.00
69257;BME280;56376;53.356;-1.748;2022-09-20T06:52:15;100484.78;;;9.92;100.00
69257;BME280;56376;53.356;-1.748;2022-09-20T06:54:42;100483.84;;;9.95;100.00
69257;BME280;56376;53.356;-1.748;2022-09-20T06:57:12;100481.16;;;10.00;100.00
69257;BME280;56376;53.356;-1.748;2022-09-20T06:59:40;100480.22;;;10.04;100.00
69257;BME280;56376;53.356;-1.748;2022-09-20T07:02:05;100484.53;;;10.05;100.00
69257;BME280;56376;53.356;-1.748;2022-09-20T07:04:33;100489.66;;;10.11;100.00
69257;BME280;56376;53.356;-1.748;2022-09-20T07:07:00;100492.22;;;10.14;100.00
69257;BME280;56376;53.356;-1.748;2022-09-20T07:09:25;100488.63;;;10.19;100.00
69257;BME280;56376;53.356;-1.748;2022-09-20T07:11:52;100486.81;;;10.23;100.00
69257;BME280;56376;53.356;-1.748;2022-09-20T07:14:17;100491.94;;;10.31;100.00
69257;BME280;56376;53.356;-1.748;2022-09-20T07:16:43;100489.09;;;10.40;100.00
69257;BME280;56376;53.356;-1.748;2022-09-20T07:19:08;100488.03;;;10.50;100.00
69257;BME280;56376;53.356;-1.748;2022-09-20T07:21:34;100495.75;;;10.56;100.00
69257;BME280;56376;53.356;-1.748;2022-09-20T07:23:59;100494.75;;;10.64;100.00
69257;BME280;56376;53.356;-1.748;2022-09-20T07:26:27;100491.97;;;10.70;100.00
69257;BME280;56376;53.356;-1.748;2022-09-20T07:28:54;100496.13;;;10.78;100.00
69257;BME280;56376;53.356;-1.748;2022-09-20T07:31:22;100492.47;;;10.87;100.00
69257;BME280;56376;53.356;-1.748;2022-09-20T07:33:48;100493.09;;;10.98;100.00
69257;BME280;56376;53.356;-1.748;2022-09-20T07:36:14;100495.41;;;11.12;100.00
69257;BME280;56376;53.356;-1.748;2022-09-20T07:38:41;100481.94;;;11.29;100.00
69257;BME280;56376;53.356;-1.748;2022-09-20T07:41:08;100478.84;;;11.47;100.00
69257;BME280;56376;53.356;-1.748;2022-09-20T07:43:35;100481.84;;;11.66;100.00
69257;BME280;56376;53.356;-1.748;2022-09-20T07:46:01;100474.31;;;11.90;100.00
69257;BME280;56376;53.356;-1.748;2022-09-20T07:48:30;100478.06;;;12.12;100.00
69257;BME280;56376;53.356;-1.748;2022-09-20T07:51:07;100473.16;;;12.31;100.00
69257;BME280;56376;53.356;-1.748;2022-09-20T07:53:33;100459.75;;;12.42;100.00
69257;BME280;56376;53.356;-1.748;2022-09-20T07:58:33;100472.44;;;12.58;100.00
69257;BME280;56376;53.356;-1.748;2022-09-20T08:01:02;100466.88;;;12.67;100.00
69257;BME280;56376;53.356;-1.748;2022-09-20T08:03:28;100471.66;;;12.82;100.00
69257;BME280;56376;53.356;-1.748;2022-09-20T08:06:05;100476.53;;;12.94;100.00
69257;BME280;56376;53.356;-1.748;2022-09-20T08:08:34;100479.00;;;13.01;100.00
69257;BME280;56376;53.356;-1.748;2022-09-20T08:11:12;100484.97;;;13.04;100.00
69257;BME280;56376;53.356;-1.748;2022-09-20T08:13:39;100476.28;;;13.02;100.00
69257;BME280;56376;53.356;-1.748;2022-09-20T08:16:07;100492.00;;;13.04;100.00
69257;BME280;56376;53.356;-1.748;2022-09-20T08:18:34;100494.66;;;13.02;100.00
69257;BME280;56376;53.356;-1.748;2022-09-20T08:21:04;100498.09;;;13.04;100.00
69257;BME280;56376;53.356;-1.748;2022-09-20T08:23:33;100493.81;;;13.02;100.00
69257;BME280;56376;53.356;-1.748;2022-09-20T08:25:58;100496.44;;;13.02;100.00
69257;BME280;56376;53.356;-1.748;2022-09-20T08:28:24;100503.34;;;13.04;100.00
69257;BME280;56376;53.356;-1.748;2022-09-20T08:30:49;100490.13;;;13.07;100.00
69257;BME280;56376;53.356;-1.748;2022-09-20T08:33:15;100495.38;;;13.07;100.00
69257;BME280;56376;53.356;-1.748;2022-09-20T08:35:40;100499.66;;;13.10;100.00
69257;BME280;56376;53.356;-1.748;2022-09-20T08:38:05;100492.59;;;13.12;100.00
69257;BME280;56376;53.356;-1.748;2022-09-20T08:40:32;100505.63;;;13.15;100.00
69257;BME280;56376;53.356;-1.748;2022-09-20T08:42:58;100506.44;;;13.17;100.00
69257;BME280;56376;53.356;-1.748;2022-09-20T08:45:25;100502.94;;;13.18;100.00
69257;BME280;56376;53.356;-1.748;2022-09-20T08:47:58;100509.78;;;13.22;100.00
69257;BME280;56376;53.356;-1.748;2022-09-20T08:50:25;100510.56;;;13.26;100.00
69257;BME280;56376;53.356;-1.748;2022-09-20T08:52:56;100513.09;;;13.29;100.00
69257;BME280;56376;53.356;-1.748;2022-09-20T08:55:29;100512.06;;;13.33;100.00
69257;BME280;56376;53.356;-1.748;2022-09-20T08:57:57;100511.19;;;13.34;100.00
69257;BME280;56376;53.356;-1.748;2022-09-20T09:00:25;100513.69;;;13.38;100.00
69257;BME280;56376;53.356;-1.748;2022-09-20T09:02:56;100517.03;;;13.42;100.00
69257;BME280;56376;53.356;-1.748;2022-09-20T09:05:35;100517.81;;;13.46;100.00
69257;BME280;56376;53.356;-1.748;2022-09-20T09:08:16;100514.16;;;13.50;100.00
69257;BME280;56376;53.356;-1.748;2022-09-20T09:11:07;100519.38;;;13.51;100.00
69257;BME280;56376;53.356;-1.748;2022-09-20T09:14:03;100518.41;;;13.54;100.00
69257;BME280;56376;53.356;-1.748;2022-09-20T09:16:32;100514.75;;;13.58;100.00
69257;BME280;56376;53.356;-1.748;2022-09-20T09:19:29;100507.78;;;13.58;99.78
69257;BME280;56376;53.356;-1.748;2022-09-20T09:22:02;100511.16;;;13.62;99.01
69257;BME280;56376;53.356;-1.748;2022-09-20T09:24:28;100509.34;;;13.64;98.39
69257;BME280;56376;53.356;-1.748;2022-09-20T09:27:11;100516.19;;;13.68;98.10
69257;BME280;56376;53.356;-1.748;2022-09-20T09:29:50;100513.50;;;13.70;96.92
69257;BME280;56376;53.356;-1.748;2022-09-20T09:32:27;100515.19;;;13.72;96.17
69257;BME280;56376;53.356;-1.748;2022-09-20T09:34:55;100517.75;;;13.74;95.98
69257;BME280;56376;53.356;-1.748;2022-09-20T09:37:26;100517.66;;;13.77;96.01
69257;BME280;56376;53.356;-1.748;2022-09-20T09:40:13;100521.03;;;13.80;96.21
69257;BME280;56376;53.356;-1.748;2022-09-20T09:42:55;100530.56;;;13.83;95.54
69257;BME280;56376;53.356;-1.748;2022-09-20T09:45:39;100533.97;;;13.87;94.88
69257;BME280;56376;53.356;-1.748;2022-09-20T09:48:25;100532.16;;;13.89;95.10
69257;BME280;56376;53.356;-1.748;2022-09-20T09:51:20;100531.19;;;13.91;95.57
69257;BME280;56376;53.356;-1.748;2022-09-20T09:53:48;100539.06;;;13.91;94.94
69257;BME280;56376;53.356;-1.748;2022-09-20T10:04:51;100532.84;;;13.94;94.75
69257;BME280;56376;53.356;-1.748;2022-09-20T10:07:48;100529.34;;;13.93;94.38
69257;BME280;56376;53.356;-1.748;2022-09-20T10:13:03;100536.19;;;13.99;95.41
69257;BME280;56376;53.356;-1.748;2022-09-20T10:15:51;100536.09;;;14.00;95.70
69257;BME280;56376;53.356;-1.748;2022-09-20T10:18:41;100535.09;;;14.04;95.81
69257;BME280;56376;53.356;-1.748;2022-09-20T10:22:02;100535.91;;;14.06;95.70
69257;BME280;56376;53.356;-1.748;2022-09-20T10:30:02;100539.97;;;14.15;93.43
69257;BME280;56376;53.356;-1.748;2022-09-20T10:32:50;100537.34;;;14.15;92.04
69257;BME280;56376;53.356;-1.748;2022-09-20T10:38:01;100538.03;;;14.20;89.68
69257;BME280;56376;53.356;-1.748;2022-09-20T10:40:42;100528.34;;;14.22;88.86
69257;BME280;56376;53.356;-1.748;2022-09-20T10:48:49;100534.84;;;14.36;85.71
69257;BME280;56376;53.356;-1.748;2022-09-20T10:51:52;100522.47;;;14.39;86.70
69257;BME280;56376;53.356;-1.748;2022-09-20T10:54:36;100530.78;;;14.52;88.72
69257;BME280;56376;53.356;-1.748;2022-09-20T10:59:48;100529.69;;;14.59;87.69
69257;BME280;56376;53.356;-1.748;2022-09-20T11:02:28;100526.97;;;14.61;87.43
69257;BME280;56376;53.356;-1.748;2022-09-20T11:05:07;100529.56;;;14.62;86.55
69257;BME280;56376;53.356;-1.748;2022-09-20T11:10:35;100530.28;;;14.66;86.81
69257;BME280;56376;53.356;-1.748;2022-09-20T11:15:45;100517.94;;;14.68;85.30
69257;BME280;56376;53.356;-1.748;2022-09-20T11:21:02;100530.00;;;14.74;85.46
69257;BME280;56376;53.356;-1.748;2022-09-20T11:26:14;100522.91;;;14.76;84.26
69257;BME280;56376;53.356;-1.748;2022-09-20T11:28:47;100528.13;;;14.77;84.61
69257;BME280;56376;53.356;-1.748;2022-09-20T11:31:18;100527.16;;;14.80;84.35
69257;BME280;56376;53.356;-1.748;2022-09-20T11:33:49;100521.94;;;14.78;83.54
69257;BME280;56376;53.356;-1.748;2022-09-20T11:36:52;100523.47;;;14.84;83.67
69257;BME280;56376;53.356;-1.748;2022-09-20T11:39:28;100523.19;;;14.91;83.68
69257;BME280;56376;53.356;-1.748;2022-09-20T11:41:55;100520.34;;;14.98;82.37
69257;BME280;56376;53.356;-1.748;2022-09-20T11:44:24;100516.59;;;15.03;81.66
69257;BME280;56376;53.356;-1.748;2022-09-20T11:46:58;100516.47;;;15.06;79.42
69257;BME280;56376;53.356;-1.748;2022-09-20T11:49:32;100519.00;;;15.09;78.94
69257;BME280;56376;53.356;-1.748;2022-09-20T11:57:26;100520.34;;;15.20;80.04
69257;BME280;56376;53.356;-1.748;2022-09-20T12:00:00;100521.94;;;15.24;80.29
69257;BME280;56376;53.356;-1.748;2022-09-20T12:05:26;100515.50;;;15.31;80.65
69257;BME280;56376;53.356;-1.748;2022-09-20T12:07:55;100517.09;;;15.35;80.54
69257;BME280;56376;53.356;-1.748;2022-09-20T12:10:26;100516.19;;;15.36;79.33
69257;BME280;56376;53.356;-1.748;2022-09-20T12:13:00;100502.97;;;15.38;78.05
69257;BME280;56376;53.356;-1.748;2022-09-20T12:15:31;100509.94;;;15.39;76.33
69257;BME280;56376;53.356;-1.748;2022-09-20T12:26:02;100507.59;;;15.53;75.75
69257;BME280;56376;53.356;-1.748;2022-09-20T12:28:43;100503.84;;;15.58;76.30
69257;BME280;56376;53.356;-1.748;2022-09-20T12:39:24;100506.72;;;15.74;75.65
69257;BME280;56376;53.356;-1.748;2022-09-20T12:44:37;100510.81;;;15.82;76.65
69257;BME280;56376;53.356;-1.748;2022-09-20T13:03:38;100509.59;;;15.90;75.51
69257;BME280;56376;53.356;-1.748;2022-09-20T13:08:46;100509.50;;;15.92;75.77
69257;BME280;56376;53.356;-1.748;2022-09-20T13:16:38;100503.44;;;15.90;77.24
69257;BME280;56376;53.356;-1.748;2022-09-20T13:19:28;100509.59;;;15.90;77.31
69257;BME280;56376;53.356;-1.748;2022-09-20T13:22:16;100501.59;;;15.92;77.29
69257;BME280;56376;53.356;-1.748;2022-09-20T13:24:47;100506.88;;;15.92;77.07
69257;BME280;56376;53.356;-1.748;2022-09-20T13:27:21;100503.25;;;15.94;76.42
69257;BME280;56376;53.356;-1.748;2022-09-20T13:29:47;100504.97;;;15.95;76.63
69257;BME280;56376;53.356;-1.748;2022-09-20T13:34:39;100509.34;;;15.95;75.30
69257;BME280;56376;53.356;-1.748;2022-09-20T13:37:16;100505.88;;;15.94;75.57
69257;BME280;56376;53.356;-1.748;2022-09-20T13:39:53;100500.59;;;15.94;75.83
69257;BME280;56376;53.356;-1.748;2022-09-20T13:42:19;100504.88;;;15.97;75.71
69257;BME280;56376;53.356;-1.748;2022-09-20T13:44:46;100505.81;;;15.96;75.75
69257;BME280;56376;53.356;-1.748;2022-09-20T13:47:29;100507.38;;;16.00;74.90
69257;BME280;56376;53.356;-1.748;2022-09-20T13:52:48;100514.53;;;15.98;74.36
69257;BME280;56376;53.356;-1.748;2022-09-20T13:55:36;100514.38;;;16.01;75.14
69257;BME280;56376;53.356;-1.748;2022-09-20T13:58:05;100505.50;;;16.04;75.53
69257;BME280;56376;53.356;-1.748;2022-09-20T14:00:32;100500.94;;;16.07;75.84
69257;BME280;56376;53.356;-1.748;2022-09-20T14:02:59;100498.94;;;16.12;74.66
69257;BME280;56376;53.356;-1.748;2022-09-20T14:05:27;100498.19;;;16.10;73.92
69257;BME280;56376;53.356;-1.748;2022-09-20T14:07:53;100496.53;;;16.08;74.09
69257;BME280;56376;53.356;-1.748;2022-09-20T14:10:33;100496.59;;;16.06;74.00
69257;BME280;56376;53.356;-1.748;2022-09-20T14:13:02;100507.19;;;16.05;74.07
69257;BME280;56376;53.356;-1.748;2022-09-20T14:15:34;100498.44;;;16.04;74.27
69257;BME280;56376;53.356;-1.748;2022-09-20T14:18:01;100492.16;;;16.07;74.91
69257;BME280;56376;53.356;-1.748;2022-09-20T14:20:29;100490.34;;;16.09;74.52
69257;BME280;56376;53.356;-1.748;2022-09-20T14:22:54;100492.13;;;16.08;74.38
69257;BME280;56376;53.356;-1.748;2022-09-20T14:25:22;100491.19;;;16.09;74.95
69257;BME280;56376;53.356;-1.748;2022-09-20T14:28:04;100495.59;;;16.09;74.70
69257;BME280;56376;53.356;-1.748;2022-09-20T14:30:34;100497.31;;;16.10;74.88
69257;BME280;56376;53.356;-1.748;2022-09-20T14:33:02;100499.09;;;16.09;74.69
69257;BME280;56376;53.356;-1.748;2022-09-20T14:35:28;100497.31;;;16.10;74.54
69257;BME280;56376;53.356;-1.748;2022-09-20T14:38:06;100496.44;;;16.09;74.31
69257;BME280;56376;53.356;-1.748;2022-09-20T14:40:46;100492.16;;;16.07;73.42
69257;BME280;56376;53.356;-1.748;2022-09-20T14:43:27;100497.44;;;16.07;73.05
69257;BME280;56376;53.356;-1.748;2022-09-20T14:45:56;100500.06;;;16.07;73.23
69257;BME280;56376;53.356;-1.748;2022-09-20T14:51:25;100490.47;;;16.06;73.88
69257;BME280;56376;53.356;-1.748;2022-09-20T14:56:38;100494.00;;;16.05;74.61
69257;BME280;56376;53.356;-1.748;2022-09-20T15:01:40;100491.50;;;16.01;74.46
69257;BME280;56376;53.356;-1.748;2022-09-20T15:04:36;100487.22;;;15.99;74.50
69257;BME280;56376;53.356;-1.748;2022-09-20T15:07:06;100482.75;;;16.01;74.19
69257;BME280;56376;53.356;-1.748;2022-09-20T15:09:33;100478.34;;;16.01;74.10
69257;BME280;56376;53.356;-1.748;2022-09-20T15:14:25;100481.78;;;16.04;74.74
69257;BME280;56376;53.356;-1.748;2022-09-20T15:16:50;100476.44;;;16.05;74.56
69257;BME280;56376;53.356;-1.748;2022-09-20T15:19:16;100479.00;;;16.07;74.77
69257;BME280;56376;53.356;-1.748;2022-09-20T15:21:41;100478.94;;;16.08;74.90
69257;BME280;56376;53.356;-1.748;2022-09-20T15:24:06;100471.88;;;16.09;74.67
69257;BME280;56376;53.356;-1.748;2022-09-20T15:26:32;100468.31;;;16.10;74.43
69257;BME280;56376;53.356;-1.748;2022-09-20T15:28:59;100468.25;;;16.11;74.44
69257;BME280;56376;53.356;-1.748;2022-09-20T15:31:25;100474.31;;;16.13;74.30
69257;BME280;56376;53.356;-1.748;2022-09-20T15:33:51;100470.75;;;16.14;74.60
69257;BME280;56376;53.356;-1.748;2022-09-20T15:36:17;100470.69;;;16.16;74.96
69257;BME280;56376;53.356;-1.748;2022-09-20T15:38:42;100470.69;;;16.16;74.81
69257;BME280;56376;53.356;-1.748;2022-09-20T15:41:07;100464.56;;;16.15;72.48
69257;BME280;56376;53.356;-1.748;2022-09-20T15:43:34;100474.31;;;16.13;72.65
69257;BME280;56376;53.356;-1.748;2022-09-20T15:46:16;100477.94;;;16.11;72.09
69257;BME280;56376;53.356;-1.748;2022-09-20T15:48:43;100471.94;;;16.07;72.29
69257;BME280;56376;53.356;-1.748;2022-09-20T15:51:10;100469.25;;;16.09;73.02
69257;BME280;56376;53.356;-1.748;2022-09-20T15:53:40;100480.63;;;16.09;73.13
69257;BME280;56376;53.356;-1.748;2022-09-20T15:56:15;100477.94;;;16.11;73.14
69257;BME280;56376;53.356;-1.748;2022-09-20T15:58:46;100472.69;;;16.11;73.32
69257;BME280;56376;53.356;-1.748;2022-09-20T16:01:12;100482.44;;;16.09;71.14
69257;BME280;56376;53.356;-1.748;2022-09-20T16:03:39;100478.34;;;16.01;70.96
69257;BME280;56376;53.356;-1.748;2022-09-20T16:06:05;100475.00;;;15.98;71.54
69257;BME280;56376;53.356;-1.748;2022-09-20T16:08:34;100478.53;;;15.97;71.60
69257;BME280;56376;53.356;-1.748;2022-09-20T16:11:00;100472.47;;;15.95;71.82
69257;BME280;56376;53.356;-1.748;2022-09-20T16:13:26;100470.63;;;15.97;72.42
69257;BME280;56376;53.356;-1.748;2022-09-20T16:15:56;100483.75;;;15.98;73.31
69257;BME280;56376;53.356;-1.748;2022-09-20T16:18:22;100475.84;;;15.98;74.08
69257;BME280;56376;53.356;-1.748;2022-09-20T16:21:08;100476.66;;;16.00;74.81
69257;BME280;56376;53.356;-1.748;2022-09-20T16:23:33;100473.91;;;16.02;74.79
69257;BME280;56376;53.356;-1.748;2022-09-20T16:26:01;100475.72;;;16.01;74.27
69257;BME280;56376;53.356;-1.748;2022-09-20T16:28:27;100470.50;;;16.00;74.39
69257;BME280;56376;53.356;-1.748;2022-09-20T16:30:57;100476.66;;;16.00;74.86
69257;BME280;56376;53.356;-1.748;2022-09-20T16:33:23;100480.97;;;16.01;75.20
69257;BME280;56376;53.356;-1.748;2022-09-20T16:35:48;100474.84;;;16.01;75.79
69257;BME280;56376;53.356;-1.748;2022-09-20T16:38:13;100475.84;;;15.98;75.96
69257;BME280;56376;53.356;-1.748;2022-09-20T16:40:39;100473.25;;;15.97;76.61
69257;BME280;56376;53.356;-1.748;2022-09-20T16:43:05;100482.16;;;15.94;76.10
69257;BME280;56376;53.356;-1.748;2022-09-20T16:45:33;100484.00;;;15.92;76.11
69257;BME280;56376;53.356;-1.748;2022-09-20T16:47:59;100482.25;;;15.93;76.46
69257;BME280;56376;53.356;-1.748;2022-09-20T16:50:26;100485.72;;;15.93;76.33
69257;BME280;56376;53.356;-1.748;2022-09-20T16:52:52;100485.72;;;15.93;75.82
69257;BME280;56376;53.356;-1.748;2022-09-20T16:55:17;100489.28;;;15.92;76.08
69257;BME280;56376;53.356;-1.748;2022-09-20T16:57:47;100491.00;;;15.93;76.48
69257;BME280;56376;53.356;-1.748;2022-09-20T17:00:13;100488.28;;;15.95;76.88
69257;BME280;56376;53.356;-1.748;2022-09-20T17:02:41;100491.84;;;15.94;78.25
69257;BME280;56376;53.356;-1.748;2022-09-20T17:05:07;100489.34;;;15.91;79.49
69257;BME280;56376;53.356;-1.748;2022-09-20T17:07:33;100490.34;;;15.88;80.11
69257;BME280;56376;53.356;-1.748;2022-09-20T17:09:58;100492.19;;;15.86;80.13
69257;BME280;56376;53.356;-1.748;2022-09-20T17:12:26;100488.75;;;15.84;80.76
69257;BME280;56376;53.356;-1.748;2022-09-20T17:14:56;100491.53;;;15.81;81.53
69257;BME280;56376;53.356;-1.748;2022-09-20T17:17:22;100489.88;;;15.78;82.30
69257;BME280;56376;53.356;-1.748;2022-09-20T17:19:47;100485.59;;;15.76;82.90
69257;BME280;56376;53.356;-1.748;2022-09-20T17:22:13;100496.97;;;15.76;83.12
69257;BME280;56376;53.356;-1.748;2022-09-20T17:24:39;100487.44;;;15.74;83.39
69257;BME280;56376;53.356;-1.748;2022-09-20T17:27:04;100485.72;;;15.73;83.88
69257;BME280;56376;53.356;-1.748;2022-09-20T17:29:31;100484.94;;;15.71;84.34
69257;BME280;56376;53.356;-1.748;2022-09-20T17:31:56;100488.47;;;15.70;84.48
69257;BME280;56376;53.356;-1.748;2022-09-20T17:34:24;100487.72;;;15.66;84.86